Sumava Resorts, Indiana
Current Conditions -  °F | °C
As of 2:55 AM on Wednesday 26 Nov 2014 (Local Time) from KRZL Reporting Station
Overcast Overcast  
Wind Chill: 27°   Ceiling: 1500
Heat Index: 27°   Visibility: 10mi
Dew Point: 23°   Wind: 0mph
Humidity: 86%   Direction: NA
Pressure: 30.18"   Gusts: NA
Location:  41.17°N, 87.44°W
Report Text: KRZL 260755Z AUTO 00000KT 10SM OVC015 M03/M05 A3018 RMK AO2
Loading
Personal Weather Stations






























Interactive Weather Map New forecast layout! Learn more

10-Day Weather Forecast

Advertisements
Track Severe Weather on mobile